Time;durP1;ratioP1;P1;durP2;ratioP2;P2;SDS_P1;SDS_P2;PMS_P1;PMS_P2;Temp;Humidity;BMP_temperature;BMP_pressure;BME280_temperature;BME280_humidity;BME280_pressure;Samples;Min_cycle;Max_cycle;Signal;HPM_P1;HPM_P2
2021/12/03 00:01:15;;;;;;;10.23;4.30;;;;;;;-0.38;70.89;99429.09;1755814;81;21639;-78
2021/12/03 00:03:41;;;;;;;14.18;5.87;;;;;;;-0.39;70.96;99443.64;1754109;81;21031;-78
2021/12/03 00:06:07;;;;;;;11.85;4.87;;;;;;;-0.39;71.02;99448.88;1743076;81;21186;-78
2021/12/03 00:08:33;;;;;;;10.68;3.72;;;;;;;-0.40;71.08;99451.97;1755564;81;21044;-78
2021/12/03 00:11:01;;;;;;;14.77;4.40;;;;;;;-0.39;71.14;99450.19;1755451;81;21130;-78
2021/12/03 00:13:30;;;;;;;13.72;4.03;;;;;;;-0.40;71.18;99462.92;1755639;81;21010;-78
2021/12/03 00:15:56;;;;;;;13.83;4.08;;;;;;;-0.44;71.24;99470.19;1755602;81;21003;-77
2021/12/03 00:18:22;;;;;;;12.90;4.45;;;;;;;-0.46;71.28;99470.81;1755560;81;21150;-78
2021/12/03 00:20:49;;;;;;;15.90;4.72;;;;;;;-0.48;71.34;99471.86;1755138;81;21487;-77
2021/12/03 00:23:15;;;;;;;29.80;8.38;;;;;;;-0.53;71.41;99467.82;1755834;81;21059;-78
2021/12/03 00:25:41;;;;;;;24.85;9.10;;;;;;;-0.55;71.46;99484.14;1755405;81;20979;-78
2021/12/03 00:28:07;;;;;;;21.42;10.93;;;;;;;-0.59;71.52;99473.56;1755691;81;20888;-78
2021/12/03 00:30:34;;;;;;;24.85;13.32;;;;;;;-0.63;71.58;99473.44;1755660;81;20947;-78
2021/12/03 00:33:00;;;;;;;24.27;11.70;;;;;;;-0.71;71.63;99479.78;1755325;81;21471;-78
2021/12/03 00:35:26;;;;;;;26.35;13.30;;;;;;;-0.78;71.67;99475.98;1755516;81;21566;-78
2021/12/03 00:37:52;;;;;;;14.93;8.35;;;;;;;-0.81;71.74;99485.86;1755707;81;20956;-78
2021/12/03 00:40:23;;;;;;;16.75;6.25;;;;;;;-0.87;71.80;99500.24;1712912;82;20906;-78
2021/12/03 00:42:49;;;;;;;21.23;7.12;;;;;;;-0.90;71.87;99501.80;1685210;85;21193;-77
2021/12/03 00:45:15;;;;;;;11.05;5.33;;;;;;;-0.92;71.94;99504.19;1685280;85;21041;-77
2021/12/03 00:47:41;;;;;;;16.17;6.47;;;;;;;-0.95;71.99;99514.89;1661359;85;21611;-78
2021/12/03 00:50:09;;;;;;;12.60;6.05;;;;;;;-0.96;72.04;99512.75;1689659;83;21076;-77
2021/12/03 00:52:35;;;;;;;12.90;5.90;;;;;;;-0.95;72.13;99518.31;1713303;83;21557;-77
2021/12/03 00:55:02;;;;;;;14.98;5.92;;;;;;;-0.93;72.19;99526.06;1713522;83;21117;-77
2021/12/03 00:57:28;;;;;;;11.90;4.50;;;;;;;-0.91;72.23;99527.59;1713970;83;21135;-77
2021/12/03 00:59:54;;;;;;;12.20;4.30;;;;;;;-0.88;72.30;99529.16;1687429;83;20929;-77
2021/12/03 01:02:20;;;;;;;21.50;7.97;;;;;;;-0.88;72.37;99523.43;1711963;83;20858;-77
2021/12/03 01:04:46;;;;;;;10.78;4.70;;;;;;;-0.91;72.40;99524.98;1712235;83;21714;-77
2021/12/03 01:07:14;;;;;;;19.73;5.50;;;;;;;-0.93;72.50;99533.44;1716539;83;21735;-77
2021/12/03 01:09:40;;;;;;;19.62;7.53;;;;;;;-0.95;72.56;99534.02;1702492;84;21094;-77
2021/12/03 01:12:07;;;;;;;20.90;10.60;;;;;;;-0.97;72.64;99539.02;1735522;82;20994;-77
2021/12/03 01:14:33;;;;;;;22.05;11.48;;;;;;;-1.01;72.73;99543.19;1735826;82;21112;-77
2021/12/03 01:16:59;;;;;;;19.45;11.03;;;;;;;-1.08;72.80;99542.45;1735651;82;20981;-77
2021/12/03 01:19:25;;;;;;;16.42;11.85;;;;;;;-1.14;72.85;99547.70;1735734;82;21180;-77
2021/12/03 01:21:51;;;;;;;23.15;12.63;;;;;;;-1.18;72.91;99544.95;1710599;83;26666;-77
2021/12/03 01:24:17;;;;;;;13.08;6.70;;;;;;;-1.23;72.98;99551.50;1687999;83;21550;-77
2021/12/03 01:26:45;;;;;;;19.12;6.37;;;;;;;-1.28;73.06;99553.61;1705959;84;20911;-77
2021/12/03 01:29:11;;;;;;;10.65;5.30;;;;;;;-1.35;73.12;99553.25;1744395;81;21042;-77
2021/12/03 01:31:37;;;;;;;15.10;5.20;;;;;;;-1.39;73.20;99561.42;1729093;81;21132;-77
2021/12/03 01:34:03;;;;;;;10.88;4.20;;;;;;;-1.45;73.27;99552.27;1723388;83;20994;-77
2021/12/03 01:36:29;;;;;;;11.97;4.10;;;;;;;-1.47;73.33;99563.77;1739645;82;21487;-77
2021/12/03 01:38:56;;;;;;;10.78;4.22;;;;;;;-1.53;73.38;99567.22;1748435;81;20895;-77
2021/12/03 01:41:22;;;;;;;9.53;3.92;;;;;;;-1.57;73.46;99565.78;1758321;81;21038;-77
2021/12/03 01:43:48;;;;;;;11.68;4.37;;;;;;;-1.60;73.54;99568.63;1758625;81;21578;-77
2021/12/03 01:46:16;;;;;;;16.42;5.55;;;;;;;-1.63;73.61;99579.31;1758540;81;21495;-77
2021/12/03 01:48:42;;;;;;;10.32;3.72;;;;;;;-1.65;73.70;99582.49;1720045;81;21451;-77
2021/12/03 01:51:07;;;;;;;12.68;4.45;;;;;;;-1.68;73.77;99577.50;1726170;82;20967;-77
2021/12/03 01:53:36;;;;;;;11.15;5.53;;;;;;;-1.73;73.84;99580.94;1745844;81;20870;-77
2021/12/03 01:56:09;;;;;;;13.85;7.35;;;;;;;-1.77;73.91;99579.49;1745455;82;20997;-77
2021/12/03 01:58:36;;;;;;;10.32;7.12;;;;;;;-1.83;74.00;99583.83;1745701;82;21032;-77
2021/12/03 02:01:07;;;;;;;21.27;9.80;;;;;;;-1.89;74.08;99593.44;1745667;82;21068;-77
2021/12/03 02:03:35;;;;;;;21.62;10.13;;;;;;;-1.94;74.18;99595.56;1774104;80;20987;-77
2021/12/03 02:06:02;;;;;;;14.38;9.38;;;;;;;-2.01;74.25;99597.76;1774467;80;21019;-77
2021/12/03 02:08:28;;;;;;;14.43;6.40;;;;;;;-2.07;74.33;99602.59;1774146;80;21126;-78
2021/12/03 02:10:54;;;;;;;19.07;6.53;;;;;;;-2.12;74.39;99606.02;1774276;80;21007;-77
2021/12/03 02:13:20;;;;;;;13.03;5.72;;;;;;;-2.17;74.48;99610.26;1774021;80;26345;-77
2021/12/03 02:15:47;;;;;;;10.30;4.58;;;;;;;-2.21;74.55;99611.88;1767379;80;21102;-77
2021/12/03 02:18:13;;;;;;;15.28;4.65;;;;;;;-2.27;74.60;99613.16;1756643;81;21038;-77
2021/12/03 02:20:47;;;;;;;13.18;4.55;;;;;;;-2.31;74.69;99620.00;1755725;81;21150;-77
2021/12/03 02:23:13;;;;;;;13.60;4.33;;;;;;;-2.36;74.75;99620.82;1755764;81;21460;-77
2021/12/03 02:25:39;;;;;;;11.05;3.67;;;;;;;-2.42;74.83;99615.54;1758252;81;21070;-77
2021/12/03 02:28:05;;;;;;;10.48;4.45;;;;;;;-2.46;74.91;99617.19;1758688;81;20958;-77
2021/12/03 02:30:31;;;;;;;14.28;3.58;;;;;;;-2.50;74.97;99620.95;1758486;81;21613;-77
2021/12/03 02:32:57;;;;;;;10.65;3.72;;;;;;;-2.55;75.04;99615.58;1769676;80;21114;-77
2021/12/03 02:35:24;;;;;;;10.72;3.55;;;;;;;-2.60;75.09;99612.44;1763600;80;26734;-77
2021/12/03 02:37:50;;;;;;;9.13;4.65;;;;;;;-2.63;75.17;99619.17;1758593;81;20986;-77
2021/12/03 02:40:16;;;;;;;12.03;6.60;;;;;;;-2.68;75.23;99619.98;1758245;81;21456;-77
2021/12/03 02:42:42;;;;;;;15.83;7.58;;;;;;;-2.71;75.30;99616.75;1758452;81;21026;-77
2021/12/03 02:45:09;;;;;;;22.73;9.85;;;;;;;-2.73;75.38;99623.83;1758502;81;21133;-77
2021/12/03 02:47:35;;;;;;;15.40;7.47;;;;;;;-2.74;75.46;99629.97;1758294;81;21495;-76
2021/12/03 02:50:02;;;;;;;27.42;12.20;;;;;;;-2.77;75.53;99627.12;1749058;81;21097;-77
2021/12/03 02:52:29;;;;;;;12.33;7.12;;;;;;;-2.78;75.61;99630.66;1730438;81;21038;-77
2021/12/03 02:54:54;;;;;;;12.65;4.50;;;;;;;-2.81;75.67;99637.39;1728070;83;20904;-77
2021/12/03 02:57:20;;;;;;;9.05;4.20;;;;;;;-2.83;75.73;99635.37;1728358;83;21084;-77
2021/12/03 02:59:46;;;;;;;12.30;4.50;;;;;;;-2.86;75.80;99634.28;1728292;83;26700;-77
2021/12/03 03:02:12;;;;;;;12.45;4.45;;;;;;;-2.90;75.87;99630.20;1728393;83;25863;-77
2021/12/03 03:04:38;;;;;;;7.03;3.47;;;;;;;-2.92;75.94;99635.97;1728021;83;28245;-77
2021/12/03 03:07:05;;;;;;;13.30;3.15;;;;;;;-2.94;76.00;99633.11;1734457;81;20868;-77
2021/12/03 03:09:31;;;;;;;6.80;2.70;;;;;;;-2.96;76.06;99629.33;1777552;80;21923;-77
2021/12/03 03:11:58;;;;;;;8.93;3.22;;;;;;;-2.96;76.11;99633.70;1779532;80;21018;-77
2021/12/03 03:14:25;;;;;;;8.58;2.70;;;;;;;-2.98;76.18;99637.70;1779443;80;20999;-78
2021/12/03 03:16:51;;;;;;;6.80;2.30;;;;;;;-3.00;76.23;99632.23;1779696;80;21070;-77
2021/12/03 03:19:21;;;;;;;7.70;2.35;;;;;;;-3.03;76.27;99632.79;1761852;80;21732;-77
2021/12/03 03:21:47;;;;;;;7.80;2.50;;;;;;;-3.04;76.31;99636.82;1771939;80;21135;-77
2021/12/03 03:24:14;;;;;;;7.78;3.33;;;;;;;-3.07;76.37;99647.46;1758492;81;27064;-77
2021/12/03 03:26:41;;;;;;;9.75;5.20;;;;;;;-3.07;76.44;99648.30;1733215;81;21030;-77
2021/12/03 03:29:09;;;;;;;14.75;5.60;;;;;;;-3.06;76.49;99651.72;1730269;81;21609;-77
2021/12/03 03:31:36;;;;;;;12.47;5.12;;;;;;;-3.07;76.54;99652.67;1728378;83;21011;-77
2021/12/03 03:34:02;;;;;;;6.53;4.70;;;;;;;-3.09;76.59;99661.89;1728096;83;21788;-77
2021/12/03 03:36:34;;;;;;;10.65;5.47;;;;;;;-3.08;76.64;99651.00;1728310;83;21018;-77
2021/12/03 03:39:01;;;;;;;7.75;3.85;;;;;;;-3.08;76.71;99647.09;1727049;83;21018;-77
2021/12/03 03:41:27;;;;;;;9.95;3.12;;;;;;;-3.08;76.76;99649.69;1714166;83;21134;-77
2021/12/03 03:43:53;;;;;;;9.60;3.92;;;;;;;-3.07;76.82;99640.48;1724501;82;26833;-77
2021/12/03 03:46:19;;;;;;;8.88;2.90;;;;;;;-3.08;76.86;99642.71;1743990;81;21034;-77
2021/12/03 03:48:45;;;;;;;9.35;2.65;;;;;;;-3.09;76.91;99648.02;1743947;82;27215;-77
2021/12/03 03:51:11;;;;;;;10.18;2.83;;;;;;;-3.08;76.98;99647.09;1741985;82;25861;-77
2021/12/03 03:53:39;;;;;;;10.45;6.53;;;;;;;-3.09;77.01;99651.46;1728885;82;21062;-77
2021/12/03 03:56:08;;;;;;;7.70;2.87;;;;;;;-3.09;77.05;99650.63;1743879;82;20970;-77
2021/12/03 03:58:34;;;;;;;5.03;2.33;;;;;;;-3.09;77.11;99654.06;1744364;82;21062;-77
2021/12/03 04:01:00;;;;;;;8.35;2.58;;;;;;;-3.09;77.16;99661.05;1743957;81;21450;-77
2021/12/03 04:03:26;;;;;;;4.25;2.02;;;;;;;-3.11;77.21;99661.17;1744093;82;25857;-77
2021/12/03 04:05:53;;;;;;;6.05;2.40;;;;;;;-3.12;77.27;99667.78;1735455;81;21061;-77
2021/12/03 04:08:19;;;;;;;13.08;2.70;;;;;;;-3.13;77.29;99664.83;1714620;83;21131;-77
2021/12/03 04:10:46;;;;;;;7.78;2.42;;;;;;;-3.16;77.34;99663.23;1714563;82;21025;-78
2021/12/03 04:13:12;;;;;;;8.30;2.55;;;;;;;-3.17;77.37;99652.92;1714415;82;21482;-77
2021/12/03 04:15:38;;;;;;;7.67;3.30;;;;;;;-3.17;77.42;99661.59;1714546;83;25855;-77
2021/12/03 04:18:04;;;;;;;10.15;4.10;;;;;;;-3.18;77.50;99652.55;1714250;83;28188;-77
2021/12/03 04:20:30;;;;;;;10.85;3.98;;;;;;;-3.17;77.53;99654.23;1714342;83;27188;-78
2021/12/03 04:22:56;;;;;;;8.05;3.72;;;;;;;-3.17;77.55;99662.05;1719619;82;21100;-77
2021/12/03 04:25:22;;;;;;;7.10;2.40;;;;;;;-3.17;77.62;99654.23;1714289;83;26620;-77
2021/12/03 04:27:49;;;;;;;7.37;2.67;;;;;;;-3.16;77.64;99650.66;1714254;83;21002;-77
2021/12/03 04:30:23;;;;;;;12.15;2.50;;;;;;;-3.16;77.70;99653.27;1714269;83;21490;-77
2021/12/03 04:32:51;;;;;;;6.92;2.42;;;;;;;-3.17;77.74;99658.98;1713200;83;21057;-77
2021/12/03 04:35:17;;;;;;;5.75;2.30;;;;;;;-3.16;77.79;99661.94;1714353;83;21173;-78
2021/12/03 04:37:43;;;;;;;5.78;2.05;;;;;;;-3.15;77.86;99664.08;1724974;82;20977;-78
2021/12/03 04:40:11;;;;;;;9.05;2.62;;;;;;;-3.14;77.88;99668.36;1743694;81;21470;-78
2021/12/03 04:42:37;;;;;;;7.62;2.15;;;;;;;-3.12;77.93;99666.02;1743621;82;21053;-77
2021/12/03 04:45:05;;;;;;;7.92;2.25;;;;;;;-3.11;77.97;99664.24;1744129;82;21054;-77
2021/12/03 04:47:32;;;;;;;9.13;2.75;;;;;;;-3.12;78.00;99662.09;1739248;82;21825;-77
2021/12/03 04:49:58;;;;;;;4.25;1.98;;;;;;;-3.11;78.05;99662.48;1714460;83;20991;-77
2021/12/03 04:52:25;;;;;;;13.72;2.30;;;;;;;-3.10;78.08;99652.39;1714453;83;25809;-78
2021/12/03 04:54:52;;;;;;;6.00;2.40;;;;;;;-3.08;78.13;99654.91;1714455;83;21002;-78
2021/12/03 04:57:17;;;;;;;8.35;2.22;;;;;;;-3.09;78.16;99650.16;1714044;83;21521;-78
2021/12/03 04:59:43;;;;;;;8.50;2.55;;;;;;;-3.08;78.20;99663.57;1732641;82;20960;-77
2021/12/03 05:02:09;;;;;;;8.68;2.35;;;;;;;-3.08;78.25;99667.95;1743879;82;26669;-77
2021/12/03 05:04:38;;;;;;;12.55;3.10;;;;;;;-3.08;78.28;99665.34;1743930;81;20982;-78
2021/12/03 05:09:37;;;;;;;7.08;2.40;;;;;;;-3.08;78.33;99673.16;1714078;82;21512;-77
2021/12/03 05:12:05;;;;;;;6.58;2.70;;;;;;;-3.07;78.38;99667.86;1714296;83;21081;-78
2021/12/03 05:14:31;;;;;;;5.35;2.50;;;;;;;-3.06;78.41;99669.97;1713748;83;21044;-77
2021/12/03 05:16:57;;;;;;;10.95;3.30;;;;;;;-3.06;78.43;99660.84;1713135;82;26443;-78
2021/12/03 05:19:23;;;;;;;11.55;2.05;;;;;;;-3.06;78.47;99665.59;1685402;85;21469;-78
2021/12/03 05:21:49;;;;;;;8.63;2.15;;;;;;;-3.03;78.50;99663.27;1685672;85;26672;-78
2021/12/03 05:24:15;;;;;;;3.65;1.70;;;;;;;-3.02;78.55;99664.45;1685393;85;21040;-78
2021/12/03 05:26:41;;;;;;;7.40;2.42;;;;;;;-3.01;78.59;99675.73;1685053;85;27117;-78
2021/12/03 05:29:10;;;;;;;8.60;2.62;;;;;;;-3.00;78.60;99677.88;1702767;83;26257;-77
2021/12/03 05:31:36;;;;;;;5.22;2.08;;;;;;;-3.00;78.65;99684.39;1713535;83;20974;-78
2021/12/03 05:34:04;;;;;;;9.10;2.65;;;;;;;-3.02;78.67;99681.87;1713727;83;21536;-77
2021/12/03 05:36:30;;;;;;;9.00;2.70;;;;;;;-3.02;78.70;99677.95;1707544;83;21861;-77
2021/12/03 05:38:56;;;;;;;5.62;2.12;;;;;;;-3.02;78.72;99676.66;1684968;85;26702;-77
2021/12/03 05:41:22;;;;;;;7.28;2.80;;;;;;;-3.02;78.74;99668.37;1685087;84;25963;-77
2021/12/03 05:43:48;;;;;;;12.30;2.45;;;;;;;-3.02;78.77;99675.35;1685019;85;28639;-77
2021/12/03 05:46:14;;;;;;;10.32;2.22;;;;;;;-3.01;78.79;99675.73;1685419;85;23949;-78
2021/12/03 05:48:40;;;;;;;6.83;2.77;;;;;;;-2.99;78.81;99672.53;1685458;83;21049;-77
2021/12/03 05:51:06;;;;;;;6.33;2.47;;;;;;;-2.99;78.83;99673.84;1685330;85;26862;-78
2021/12/03 05:53:33;;;;;;;9.43;2.77;;;;;;;-2.98;78.85;99676.82;1685301;83;21525;-77
2021/12/03 05:55:59;;;;;;;7.17;2.87;;;;;;;-2.96;78.87;99684.56;1695225;83;21045;-77
2021/12/03 05:58:25;;;;;;;8.35;2.50;;;;;;;-2.95;78.89;99683.13;1713851;83;21525;-78
2021/12/03 06:00:51;;;;;;;10.23;2.67;;;;;;;-2.93;78.92;99692.17;1713915;83;21157;-77
2021/12/03 06:03:17;;;;;;;10.60;2.45;;;;;;;-2.91;78.91;99698.95;1714102;83;26665;-77
2021/12/03 06:05:43;;;;;;;10.00;2.80;;;;;;;-2.91;78.92;99698.11;1713863;83;26319;-77
2021/12/03 06:08:09;;;;;;;8.55;2.70;;;;;;;-2.89;78.94;99698.39;1713967;82;21502;-77
2021/12/03 06:10:35;;;;;;;13.80;3.08;;;;;;;-2.83;78.97;99711.02;1714167;83;20963;-77
2021/12/03 06:13:01;;;;;;;5.75;2.10;;;;;;;-2.82;78.97;99710.55;1713914;82;21110;-77
2021/12/03 06:15:27;;;;;;;6.45;2.87;;;;;;;-2.81;79.00;99713.51;1713719;83;27072;-77
2021/12/03 06:17:53;;;;;;;8.53;2.85;;;;;;;-2.78;78.99;99714.14;1714342;83;21001;-77
2021/12/03 06:20:19;;;;;;;12.10;3.05;;;;;;;-2.75;79.01;99711.35;1713898;83;21364;-77
2021/12/03 06:22:46;;;;;;;8.88;2.90;;;;;;;-2.68;79.02;99712.61;1713935;82;21537;-77
2021/12/03 06:25:12;;;;;;;8.45;3.00;;;;;;;-2.66;79.00;99714.63;1714050;83;21477;-77
2021/12/03 06:27:38;;;;;;;10.40;2.87;;;;;;;-2.66;79.00;99706.80;1697591;83;21025;-77
2021/12/03 06:30:07;;;;;;;11.12;2.67;;;;;;;-2.63;79.02;99716.19;1685340;85;25921;-77
2021/12/03 06:32:34;;;;;;;7.78;3.33;;;;;;;-2.56;79.04;99723.97;1685196;83;21510;-77
2021/12/03 06:35:00;;;;;;;7.35;2.58;;;;;;;-2.50;79.03;99727.95;1685226;85;21501;-77
2021/12/03 06:37:26;;;;;;;11.65;2.98;;;;;;;-2.46;79.02;99730.73;1685122;85;21036;-77
2021/12/03 06:39:52;;;;;;;10.80;3.12;;;;;;;-2.47;79.02;99736.41;1685305;83;26740;-77
2021/12/03 06:42:18;;;;;;;6.80;2.87;;;;;;;-2.45;79.01;99744.13;1685475;83;25888;-78
2021/12/03 06:44:44;;;;;;;11.43;3.25;;;;;;;-2.43;79.01;99742.27;1685546;83;28224;-77
2021/12/03 06:47:10;;;;;;;9.30;2.77;;;;;;;-2.41;78.99;99744.28;1685408;85;21012;-77
2021/12/03 06:49:36;;;;;;;9.88;3.17;;;;;;;-2.37;78.99;99750.97;1691308;83;20996;-78
2021/12/03 06:52:08;;;;;;;9.63;3.25;;;;;;;-2.33;78.98;99755.89;1705551;83;26722;-77
2021/12/03 06:54:35;;;;;;;7.45;3.40;;;;;;;-2.29;78.97;99745.61;1698187;82;21013;-77
2021/12/03 06:57:04;;;;;;;8.80;3.75;;;;;;;-2.26;78.96;99752.39;1691976;83;21303;-77
2021/12/03 06:59:31;;;;;;;11.12;3.70;;;;;;;-2.22;78.93;99752.55;1705589;83;21063;-77
2021/12/03 07:01:57;;;;;;;10.93;3.15;;;;;;;-2.20;78.92;99748.05;1710885;83;21153;-77
2021/12/03 07:04:23;;;;;;;10.95;3.87;;;;;;;-2.16;78.91;99749.51;1682331;84;26609;-77
2021/12/03 07:06:49;;;;;;;15.83;3.98;;;;;;;-2.13;78.87;99754.52;1679008;84;21567;-77
2021/12/03 07:09:16;;;;;;;8.08;3.22;;;;;;;-2.09;78.88;99750.75;1684440;83;21009;-77
2021/12/03 07:11:41;;;;;;;12.23;3.83;;;;;;;-2.03;78.87;99747.70;1692109;84;21023;-77
2021/12/03 07:14:08;;;;;;;13.35;4.60;;;;;;;-2.00;78.84;99757.94;1689329;83;21171;-77
2021/12/03 07:16:34;;;;;;;14.55;6.30;;;;;;;-1.98;78.85;99756.08;1682791;84;21046;-77
2021/12/03 07:19:00;;;;;;;11.18;4.47;;;;;;;-1.97;78.81;99762.95;1680443;85;25819;-78
2021/12/03 07:21:26;;;;;;;10.75;4.15;;;;;;;-1.76;78.74;99762.75;1705608;84;20982;-78
2021/12/03 07:23:53;;;;;;;9.48;4.78;;;;;;;-1.62;78.67;99758.70;1712008;83;21711;-77
2021/12/03 07:26:19;;;;;;;13.08;4.10;;;;;;;-1.66;78.63;99757.73;1677393;85;21634;-78
2021/12/03 07:28:45;;;;;;;13.22;4.87;;;;;;;-1.76;78.61;99767.98;1690821;84;21022;-78
2021/12/03 07:31:11;;;;;;;10.55;5.45;;;;;;;-1.80;78.61;99765.25;1685300;85;25785;-78
2021/12/03 07:33:39;;;;;;;14.25;4.50;;;;;;;-1.78;78.61;99758.12;1677167;85;20940;-78
2021/12/03 07:36:05;;;;;;;11.20;4.80;;;;;;;-1.71;78.58;99759.36;1709803;83;21057;-78
2021/12/03 07:38:31;;;;;;;7.90;3.77;;;;;;;-1.67;78.54;99762.13;1703166;83;21182;-78
2021/12/03 07:40:57;;;;;;;18.15;7.22;;;;;;;-1.65;78.53;99756.30;1715924;82;27073;-79
2021/12/03 07:43:23;;;;;;;9.48;4.08;;;;;;;-1.61;78.53;99761.68;1716634;81;25870;-79
2021/12/03 07:45:49;;;;;;;9.13;4.87;;;;;;;-1.58;78.52;99754.08;1728535;82;21116;-79
2021/12/03 07:48:16;;;;;;;10.08;4.40;;;;;;;-1.51;78.51;99769.23;1712269;83;21880;-79
2021/12/03 07:50:42;;;;;;;9.43;3.95;;;;;;;-1.42;78.49;99770.37;1729715;81;21091;-78
2021/12/03 07:53:09;;;;;;;11.63;4.42;;;;;;;-1.36;78.47;99775.61;1704041;82;21045;-79
2021/12/03 07:55:35;;;;;;;12.95;4.95;;;;;;;-1.32;78.44;99771.38;1713593;83;21014;-79
2021/12/03 07:58:04;;;;;;;15.15;5.97;;;;;;;-1.25;78.42;99769.14;1711170;83;21499;-79
2021/12/03 08:00:30;;;;;;;15.18;7.35;;;;;;;-1.20;78.39;99777.50;1715914;82;21544;-79
2021/12/03 08:02:56;;;;;;;19.05;7.22;;;;;;;-1.17;78.33;99778.59;1689379;83;21098;-79
2021/12/03 08:05:23;;;;;;;17.50;6.75;;;;;;;-1.18;78.31;99776.91;1706123;83;23680;-79
2021/12/03 08:07:51;;;;;;;16.15;9.20;;;;;;;-1.17;78.27;99779.89;1678037;84;21002;-79
2021/12/03 08:10:17;;;;;;;16.20;9.43;;;;;;;-1.19;78.23;99784.38;1695707;84;21077;-79
2021/12/03 08:12:43;;;;;;;13.55;5.80;;;;;;;-1.17;78.21;99778.12;1689015;83;20914;-78
2021/12/03 08:15:09;;;;;;;13.95;6.17;;;;;;;-1.11;78.16;99780.28;1705406;83;21096;-78
2021/12/03 08:17:35;;;;;;;13.00;4.83;;;;;;;-1.08;78.10;99789.68;1682174;83;20982;-78
2021/12/03 08:20:01;;;;;;;8.85;4.58;;;;;;;-1.09;78.06;99788.03;1700169;84;21034;-78
2021/12/03 08:22:27;;;;;;;11.93;4.65;;;;;;;-1.09;78.00;99785.41;1683390;84;21082;-78
2021/12/03 08:24:54;;;;;;;11.53;5.50;;;;;;;-1.09;77.95;99788.03;1689263;84;21702;-78
2021/12/03 08:27:20;;;;;;;11.90;5.15;;;;;;;-1.12;77.92;99781.22;1692615;83;21493;-78
2021/12/03 08:29:46;;;;;;;15.10;4.80;;;;;;;-1.08;77.87;99787.06;1711268;83;21005;-78
2021/12/03 08:32:12;;;;;;;10.80;4.55;;;;;;;-1.06;77.82;99790.42;1710982;82;21037;-78
2021/12/03 08:34:38;;;;;;;11.20;4.22;;;;;;;-1.02;77.81;99790.53;1699848;83;20886;-79
2021/12/03 08:37:06;;;;;;;9.58;3.90;;;;;;;-0.96;77.76;99795.34;1698533;82;21072;-78
2021/12/03 08:39:32;;;;;;;10.15;4.12;;;;;;;-0.89;77.73;99795.72;1689116;83;21081;-79
2021/12/03 08:41:58;;;;;;;14.23;4.90;;;;;;;-0.84;77.63;99800.97;1676571;85;20993;-78
2021/12/03 08:44:24;;;;;;;13.60;4.75;;;;;;;-0.78;77.58;99802.32;1684324;83;21069;-79
2021/12/03 08:47:03;;;;;;;11.60;4.03;;;;;;;-0.72;77.53;99805.31;1710035;83;21010;-79
2021/12/03 08:49:33;;;;;;;11.30;4.87;;;;;;;-0.66;77.48;99806.62;1704442;84;21535;-77
2021/12/03 08:57:12;;;;;;;10.28;4.20;;;;;;;-0.53;77.30;99813.45;1697291;84;21116;-78
2021/12/03 08:59:38;;;;;;;13.13;4.58;;;;;;;-0.48;77.23;99808.36;1696087;84;21022;-78
2021/12/03 09:02:05;;;;;;;16.67;5.33;;;;;;;-0.44;77.17;99809.33;1694988;84;21006;-78
2021/12/03 09:04:31;;;;;;;12.23;5.35;;;;;;;-0.41;77.10;99813.50;1677836;84;21259;-78
2021/12/03 09:06:58;;;;;;;15.23;4.67;;;;;;;-0.37;77.05;99814.94;1703604;84;20892;-78
2021/12/03 09:09:25;;;;;;;14.03;4.90;;;;;;;-0.32;76.99;99823.30;1709035;83;21537;-78
2021/12/03 09:11:51;;;;;;;8.00;3.87;;;;;;;-0.28;76.91;99819.51;1713649;82;21558;-78
2021/12/03 09:14:24;;;;;;;11.35;4.55;;;;;;;-0.25;76.85;99820.58;1702164;83;21131;-77
2021/12/03 09:16:51;;;;;;;9.90;4.67;;;;;;;-0.21;76.78;99817.59;1693335;84;21188;-78
2021/12/03 09:19:20;;;;;;;20.15;7.58;;;;;;;-0.16;76.73;99810.70;1675256;85;21494;-78
2021/12/03 09:21:40;;;;;;;13.85;4.47;;;;;;;-0.13;76.66;99818.33;1712844;83;21537;-78
2021/12/03 09:24:13;;;;;;;19.35;5.40;;;;;;;-0.07;76.59;99820.50;1710044;83;20986;-79
2021/12/03 09:26:40;;;;;;;14.90;3.98;;;;;;;-0.02;76.54;99824.42;1698801;84;21066;-79
2021/12/03 09:29:07;;;;;;;15.43;5.35;;;;;;;0.03;76.47;99829.33;1736727;82;21277;-78
2021/12/03 09:31:36;;;;;;;9.68;4.90;;;;;;;0.07;76.39;99840.41;1729317;81;21121;-79
2021/12/03 09:34:08;;;;;;;9.88;5.15;;;;;;;0.10;76.31;99831.84;1732455;81;21501;-78
2021/12/03 09:36:32;;;;;;;12.95;3.15;;;;;;;0.17;76.27;99833.51;1733841;82;21059;-77
2021/12/03 09:38:58;;;;;;;11.73;5.33;;;;;;;0.21;76.20;99831.82;1712232;83;21019;-78
2021/12/03 09:41:24;;;;;;;17.42;5.12;;;;;;;0.25;76.11;99837.19;1723935;81;21095;-77
2021/12/03 09:43:52;;;;;;;11.18;5.05;;;;;;;0.28;76.02;99835.64;1734280;81;20958;-78
2021/12/03 09:46:24;;;;;;;10.35;4.85;;;;;;;0.34;75.96;99833.03;1741140;81;21506;-79
2021/12/03 09:51:47;;;;;;;11.57;6.20;;;;;;;0.43;75.82;99827.90;1711790;83;20998;-79
2021/12/03 09:54:23;;;;;;;11.48;4.90;;;;;;;0.52;75.73;99828.14;1704551;83;21326;-79
2021/12/03 09:56:45;;;;;;;11.25;4.95;;;;;;;0.59;75.67;99831.95;1702904;83;21568;-79
2021/12/03 09:59:40;;;;;;;13.45;6.37;;;;;;;0.65;75.57;99834.09;1702372;83;21077;-79
2021/12/03 10:12:43;;;;;;;11.88;4.72;;;;;;;0.91;75.02;99832.86;1680173;84;21719;-78
2021/12/03 10:15:36;;;;;;;13.25;5.67;;;;;;;0.97;74.92;99824.48;1674401;85;21011;-77
2021/12/03 10:24:02;;;;;;;14.63;4.97;;;;;;;1.17;74.72;99824.18;1737087;81;20994;-77
2021/12/03 10:42:37;;;;;;;13.65;4.90;;;;;;;1.37;74.08;99818.97;1704773;82;21070;-76
2021/12/03 10:45:18;;;;;;;10.30;4.47;;;;;;;1.42;73.98;99823.38;1697950;83;21674;-77
2021/12/03 10:48:00;;;;;;;12.15;3.95;;;;;;;1.51;73.90;99823.11;1715853;82;21494;-77
2021/12/03 11:01:22;;;;;;;14.03;4.35;;;;;;;1.78;73.34;99822.59;1705895;83;21919;-87
2021/12/03 11:12:08;;;;;;;10.05;3.35;;;;;;;2.02;72.96;99829.73;1684518;84;21134;-78
2021/12/03 11:47:11;;;;;;;9.33;3.50;;;;;;;2.45;71.48;99830.38;1692227;83;21106;-78
2021/12/03 12:34:32;;;;;;;5.30;2.05;;;;;;;2.83;69.85;99836.73;1681831;85;21045;-73
2021/12/03 12:41:27;;;;;;;8.70;3.27;;;;;;;2.84;69.44;99831.82;1684695;83;21053;-74
2021/12/03 13:00:50;;;;;;;6.50;2.10;;;;;;;2.59;68.51;99836.23;1684295;85;21533;-73
2021/12/03 13:13:40;;;;;;;7.75;2.47;;;;;;;2.43;68.14;99837.55;1710080;83;21065;-70
2021/12/03 13:24:55;;;;;;;8.83;1.87;;;;;;;2.37;67.90;99840.72;1771416;80;21077;-70
2021/12/03 13:32:54;;;;;;;5.92;2.12;;;;;;;2.26;67.61;99855.27;1740778;81;21049;-70
2021/12/03 14:21:18;;;;;;;9.38;4.62;;;;;;;1.56;66.28;99879.20;1683036;84;21550;-71
2021/12/03 14:25:05;;;;;;;6.37;3.85;;;;;;;1.49;66.27;99881.50;1721251;83;21027;-71
2021/12/03 14:35:08;;;;;;;16.62;8.00;;;;;;;1.28;66.28;99894.58;1684969;85;21069;-70
2021/12/03 14:39:23;;;;;;;25.75;12.15;;;;;;;1.20;66.30;99892.20;1680020;84;21042;-70
2021/12/03 14:46:58;;;;;;;24.05;12.58;;;;;;;1.14;66.31;99890.08;1716332;83;21049;-70
2021/12/03 14:52:12;;;;;;;16.67;7.72;;;;;;;1.06;66.31;99882.80;1653240;86;21547;-70
2021/12/03 14:57:58;;;;;;;31.73;13.30;;;;;;;1.08;66.28;99892.73;1673542;84;21056;-70
2021/12/03 15:00:04;;;;;;;27.22;8.25;;;;;;;1.08;66.25;99894.04;1672764;84;21084;-71
2021/12/03 15:02:41;;;;;;;9.90;3.85;;;;;;;1.06;66.23;99905.12;1696552;83;21606;-70
2021/12/03 15:05:24;;;;;;;22.15;5.95;;;;;;;1.09;66.20;99910.13;1697250;84;21514;-70
2021/12/03 15:07:49;;;;;;;30.02;9.98;;;;;;;1.10;66.13;99911.80;1721241;81;21330;-70
2021/12/03 15:10:26;;;;;;;8.40;3.58;;;;;;;1.07;66.09;99916.46;1752347;80;20999;-70
2021/12/03 15:13:12;;;;;;;16.10;7.78;;;;;;;0.99;66.09;99915.75;1712360;82;21593;-70
2021/12/03 15:16:22;;;;;;;15.18;4.65;;;;;;;0.98;66.07;99918.05;1760677;80;21523;-70
2021/12/03 15:18:38;;;;;;;9.75;4.28;;;;;;;0.93;66.07;99921.49;1765520;80;21018;-70
2021/12/03 15:23:27;;;;;;;5.20;2.83;;;;;;;0.88;66.06;99926.28;1744337;82;21384;-70
2021/12/03 15:25:50;;;;;;;11.15;5.03;;;;;;;0.88;66.05;99926.28;1743152;81;21002;-70
2021/12/03 15:31:00;;;;;;;6.35;3.12;;;;;;;0.83;66.01;99924.48;1746407;81;21051;-70
2021/12/03 15:33:40;;;;;;;6.55;2.95;;;;;;;0.81;65.97;99924.59;1762294;80;21096;-70
2021/12/03 15:36:12;;;;;;;8.50;3.67;;;;;;;0.82;65.93;99922.81;1733921;80;22251;-70
2021/12/03 15:52:41;;;;;;;17.23;7.22;;;;;;;0.60;65.84;99934.63;1724463;82;21038;-70
2021/12/03 15:57:24;;;;;;;61.15;22.32;;;;;;;0.46;65.87;99931.26;1740316;81;21017;-70
2021/12/03 16:13:42;;;;;;;17.87;8.00;;;;;;;0.42;65.88;99935.56;1725354;82;39048;-70
2021/12/03 16:16:32;;;;;;;16.45;6.58;;;;;;;0.45;65.87;99934.86;1738446;81;21010;-70
2021/12/03 16:18:53;;;;;;;30.32;10.82;;;;;;;0.42;65.87;99949.99;1738441;82;21860;-70